createdAt,value
2018-03-14T00:00:54.571Z,75.70
2018-03-14T00:06:22.820Z,75.80
2018-03-14T00:11:51.006Z,76.00
2018-03-14T00:17:20.868Z,76.90
2018-03-14T00:22:49.078Z,76.90
2018-03-14T00:28:17.981Z,77.00
2018-03-14T00:33:46.134Z,76.90
2018-03-14T00:39:15.043Z,77.40
2018-03-14T00:44:43.202Z,76.80
2018-03-14T00:50:12.160Z,76.60
2018-03-14T00:55:40.345Z,76.70
2018-03-14T01:01:08.507Z,76.60
2018-03-14T01:06:36.652Z,76.60
2018-03-14T01:12:05.743Z,76.60
2018-03-14T01:17:34.679Z,76.70
2018-03-14T01:23:03.604Z,76.70
2018-03-14T01:28:32.529Z,76.70
2018-03-14T01:34:08.111Z,76.60
2018-03-14T01:39:36.270Z,76.60
2018-03-14T01:45:05.157Z,76.50
2018-03-14T01:50:33.336Z,76.50
2018-03-14T01:56:02.263Z,76.60
2018-03-14T02:01:31.177Z,76.60
2018-03-14T02:06:59.313Z,76.60
2018-03-14T02:12:28.268Z,76.50
2018-03-14T02:17:56.423Z,76.50
2018-03-14T02:23:24.688Z,76.90
2018-03-14T02:28:52.903Z,76.80
2018-03-14T02:34:21.824Z,77.00
2018-03-14T02:39:49.969Z,76.80
2018-03-14T02:45:18.861Z,76.90
2018-03-14T02:50:46.990Z,76.90
2018-03-14T02:56:15.126Z,76.90
2018-03-14T03:01:43.283Z,76.80
2018-03-14T03:07:13.154Z,77.10
2018-03-14T03:12:41.292Z,77.10
2018-03-14T03:18:09.433Z,77.20
2018-03-14T03:23:38.491Z,77.00
2018-03-14T03:29:06.641Z,77.20
2018-03-14T03:34:35.541Z,77.10
2018-03-14T03:40:03.690Z,77.10
2018-03-14T03:45:32.599Z,77.40
2018-03-14T03:51:00.931Z,77.40
2018-03-14T03:56:29.105Z,77.20
2018-03-14T04:01:57.302Z,77.50
2018-03-14T04:07:25.653Z,77.30
2018-03-14T04:12:53.838Z,77.30
2018-03-14T04:18:22.747Z,77.50
2018-03-14T04:23:50.934Z,77.40
2018-03-14T04:29:20.043Z,77.50
2018-03-14T04:34:48.430Z,77.50
2018-03-14T04:40:16.586Z,77.50
2018-03-14T04:45:45.535Z,77.70
2018-03-14T04:51:13.661Z,77.50
2018-03-14T04:56:41.822Z,77.70
2018-03-14T05:02:09.981Z,77.80
2018-03-14T05:07:38.894Z,77.90
2018-03-14T05:13:07.930Z,77.90
2018-03-14T05:18:36.214Z,78.20
2018-03-14T05:24:05.031Z,78.30
2018-03-14T05:29:33.950Z,78.30
2018-03-14T05:35:02.409Z,78.30
2018-03-14T05:40:30.575Z,78.50
2018-03-14T05:45:58.741Z,78.60
2018-03-14T05:51:27.720Z,81.00
2018-03-14T05:56:55.931Z,80.90
2018-03-14T06:02:24.158Z,79.40
2018-03-14T06:07:52.357Z,79.10
2018-03-14T06:13:21.193Z,79.00
2018-03-14T06:18:50.125Z,79.00
2018-03-14T06:24:18.284Z,79.00
2018-03-14T06:29:46.454Z,79.00
2018-03-14T06:35:14.570Z,79.00
2018-03-14T06:40:43.500Z,79.00
2018-03-14T06:46:12.436Z,79.30
2018-03-14T06:51:41.348Z,79.80
2018-03-14T06:57:09.515Z,79.30
2018-03-14T07:02:58.548Z,79.20
2018-03-14T07:08:27.481Z,79.20
2018-03-14T07:13:55.643Z,79.20
2018-03-14T07:19:23.766Z,79.30
2018-03-14T07:24:51.919Z,79.20
2018-03-14T07:30:20.088Z,79.20
2018-03-14T07:35:48.240Z,79.20
2018-03-14T07:41:16.407Z,79.20
2018-03-14T07:46:44.566Z,79.20
2018-03-14T07:52:14.641Z,79.20
2018-03-14T07:57:43.567Z,79.10
2018-03-14T08:03:11.761Z,79.10
2018-03-14T08:08:41.236Z,79.10
2018-03-14T08:14:09.402Z,79.60
2018-03-14T08:19:37.555Z,79.00
2018-03-14T08:25:05.681Z,79.20
2018-03-14T08:30:33.847Z,79.10
2018-03-14T08:36:02.751Z,79.20
2018-03-14T08:41:30.901Z,79.10
2018-03-14T08:46:59.846Z,79.10
2018-03-14T08:52:28.079Z,79.10
2018-03-14T08:57:56.225Z,79.20
2018-03-14T09:03:24.365Z,79.50
2018-03-14T09:08:52.516Z,79.10
2018-03-14T09:14:21.447Z,79.30
2018-03-14T09:19:50.359Z,79.30
2018-03-14T09:25:18.513Z,79.20
2018-03-14T09:30:52.571Z,78.60
2018-03-14T09:36:21.480Z,78.50
2018-03-14T09:41:49.698Z,78.50
2018-03-14T09:47:17.894Z,77.90
2018-03-14T09:52:46.066Z,77.30
2018-03-14T09:58:14.199Z,77.60
2018-03-14T10:03:42.335Z,77.00
2018-03-14T10:09:11.454Z,76.90
2018-03-14T10:14:40.387Z,77.40
2018-03-14T10:20:09.344Z,78.10
2018-03-14T10:25:37.628Z,77.40
2018-03-14T10:31:06.491Z,76.90
2018-03-14T10:36:34.646Z,76.80
2018-03-14T10:42:02.812Z,75.90
2018-03-14T10:47:30.961Z,75.90
2018-03-14T10:52:59.107Z,76.10
2018-03-14T10:58:28.056Z,75.00
2018-03-14T11:03:56.271Z,74.90
2018-03-14T11:09:24.513Z,75.00
2018-03-14T11:14:52.660Z,73.80
2018-03-14T11:20:21.663Z,73.40
2018-03-14T11:25:49.781Z,73.30
2018-03-14T11:31:18.657Z,73.10
2018-03-14T11:36:47.573Z,73.00
2018-03-14T11:42:15.708Z,72.90
2018-03-14T11:47:43.859Z,72.10
2018-03-14T11:53:12.028Z,71.20
2018-03-14T11:58:40.180Z,70.60
2018-03-14T12:04:08.331Z,69.50
2018-03-14T12:09:38.471Z,69.60
2018-03-14T12:15:06.611Z,69.20
2018-03-14T12:20:34.827Z,68.90
2018-03-14T12:26:03.064Z,68.40
2018-03-14T12:31:31.209Z,67.80
2018-03-14T12:36:59.380Z,67.40
2018-03-14T12:42:27.549Z,67.40
2018-03-14T12:47:56.574Z,63.60
2018-03-14T12:53:24.805Z,63.50
2018-03-14T12:58:53.019Z,64.60
2018-03-14T13:04:21.191Z,63.40
2018-03-14T13:09:49.339Z,62.70
2018-03-14T13:15:17.509Z,60.40
2018-03-14T13:20:46.471Z,57.80
2018-03-14T13:26:14.644Z,57.80
2018-03-14T13:31:43.927Z,58.20
2018-03-14T13:37:12.103Z,58.20
2018-03-14T13:42:40.314Z,58.60
2018-03-14T13:48:14.760Z,58.70
2018-03-14T13:53:42.932Z,58.70
2018-03-14T13:59:11.101Z,56.10
2018-03-14T14:04:39.282Z,54.50
2018-03-14T14:10:07.923Z,51.50
2018-03-14T14:15:40.097Z,46.40
2018-03-14T14:21:09.207Z,46.30
2018-03-14T14:26:37.427Z,43.80
2018-03-14T14:32:05.568Z,42.00
2018-03-14T14:37:41.855Z,41.80
2018-03-14T14:43:10.232Z,43.00
2018-03-14T14:48:40.770Z,41.10
2018-03-14T14:54:10.549Z,40.60
2018-03-14T14:59:38.716Z,40.90
2018-03-14T15:05:06.871Z,45.20
2018-03-14T15:10:35.086Z,42.80
2018-03-14T15:16:04.044Z,39.90
2018-03-14T15:21:32.385Z,39.80
2018-03-14T15:27:00.632Z,40.50
2018-03-14T15:32:29.584Z,39.90
2018-03-14T15:37:57.775Z,39.80
2018-03-14T15:43:25.959Z,40.80
2018-03-14T15:48:54.223Z,42.00
2018-03-14T15:54:22.589Z,42.60
2018-03-14T15:59:50.740Z,44.30
2018-03-14T16:05:18.965Z,43.90
2018-03-14T16:10:47.152Z,43.80
2018-03-14T16:16:15.464Z,43.40
2018-03-14T16:21:43.721Z,43.90
2018-03-14T16:27:12.134Z,44.70
2018-03-14T16:32:40.333Z,46.10
2018-03-14T16:38:09.304Z,47.90
2018-03-14T16:43:37.577Z,49.00
2018-03-14T16:49:06.512Z,51.00
2018-03-14T16:54:37.412Z,52.80
2018-03-14T17:00:05.568Z,52.80
2018-03-14T17:05:33.731Z,53.90
2018-03-14T17:11:01.925Z,55.30
2018-03-14T17:16:30.102Z,55.40
2018-03-14T17:21:58.260Z,56.10
2018-03-14T17:27:27.209Z,57.20
2018-03-14T17:32:55.426Z,57.30
2018-03-14T17:38:23.722Z,57.60
2018-03-14T17:43:51.911Z,58.20
2018-03-14T17:49:20.068Z,58.60
2018-03-14T17:54:48.215Z,59.10
2018-03-14T18:00:16.357Z,59.60
2018-03-14T18:05:44.508Z,60.20
2018-03-14T18:11:12.653Z,60.70
2018-03-14T18:16:41.628Z,61.70
2018-03-14T18:22:10.879Z,61.80
2018-03-14T18:27:42.979Z,62.50
2018-03-14T18:33:11.964Z,63.00
2018-03-14T18:38:54.156Z,63.00
2018-03-14T18:44:22.396Z,63.30
2018-03-14T18:49:59.438Z,64.00
2018-03-14T18:55:28.392Z,64.30
2018-03-14T19:01:00.635Z,64.30
2018-03-14T19:06:29.735Z,65.20
2018-03-14T19:11:57.944Z,65.10
2018-03-14T19:17:26.410Z,65.40
2018-03-14T19:22:56.873Z,65.60
2018-03-14T19:28:25.941Z,66.00
2018-03-14T19:33:54.145Z,66.30
2018-03-14T19:39:23.121Z,66.40
2018-03-14T19:44:51.307Z,66.70
2018-03-14T19:50:26.415Z,67.00
2018-03-14T19:55:55.622Z,67.20
2018-03-14T20:01:23.868Z,67.40
2018-03-14T20:06:52.312Z,67.70
2018-03-14T20:12:20.993Z,67.90
2018-03-14T20:17:50.401Z,68.20
2018-03-14T20:23:18.629Z,68.30
2018-03-14T20:28:46.874Z,68.50
2018-03-14T20:34:15.253Z,68.60
2018-03-14T20:39:43.436Z,68.80
2018-03-14T20:45:12.580Z,69.00
2018-03-14T20:50:46.750Z,69.40
2018-03-14T20:56:25.379Z,69.30
2018-03-14T21:01:55.673Z,69.40
2018-03-14T21:07:23.880Z,69.60
2018-03-14T21:13:08.404Z,69.80
2018-03-14T21:18:36.602Z,70.00
2018-03-14T21:24:06.095Z,70.00
2018-03-14T21:29:34.274Z,70.10
2018-03-14T21:35:02.540Z,70.30
2018-03-14T21:40:33.041Z,70.40
2018-03-14T21:46:01.953Z,71.20
2018-03-14T21:51:30.195Z,70.60
2018-03-14T21:56:58.431Z,70.70
2018-03-14T22:02:27.371Z,70.90
2018-03-14T22:07:59.368Z,71.50
2018-03-14T22:13:27.573Z,71.00
2018-03-14T22:18:55.785Z,71.10
2018-03-14T22:24:24.006Z,71.20
2018-03-14T22:29:52.214Z,71.60
2018-03-14T22:35:20.374Z,71.40
2018-03-14T22:40:48.662Z,71.50
2018-03-14T22:46:16.864Z,71.60
2018-03-14T22:51:45.789Z,71.60
2018-03-14T22:57:15.030Z,71.80
2018-03-14T23:02:43.626Z,71.80
2018-03-14T23:08:12.582Z,76.20
2018-03-14T23:13:40.737Z,76.20
2018-03-14T23:42:58.962Z,72.80
2018-03-14T23:48:40.241Z,72.80
2018-03-14T23:54:08.400Z,72.90
2018-03-14T23:59:37.498Z,73.00
